Main page
METAR-TAF:

METAR-TAF

Airports :

Kassel Airport

Kassel, Germany

latitude: 51-24N, longitude: 009-23E, elevation: 277 m

Current weather observation

The report was made 4 hours and 35 minutes ago, at 20:50 UTC
Wind 5 kt from the East/Northeast, varying between North/Northeast and East
Temperature 3°C
Humidity 81%
Pressure 1004 hPa
Visibility 10 km or more
no clouds below 1500 m and no cumulonimbus

METAR: EDVK 142050Z 06005KT 030V090 CAVOK 03/00 Q1004

Time: 02:25 (01:25 UTC)

Forecast

The report was made 5 hours and 25 minutes ago, at 20:00 UTC
Forecast valid from 14 at 21 UTC to 15 at 03 UTC
Wind 8 kt from the East
Visibility 10 km or more
no clouds below 1500 m and no cumulonimbus
Probability 30% :
Temporary
from 15 at 01 UTC to 15 at 03 UTC
Broken clouds at a height of 400 ft

TAF: EDVK 142000Z 1421/1503 08008KT CAVOK PROB30 TEMPO 1501/1503 BKN004

Weather observations and forecasts of more than 4000 airports (METAR and TAF reports).

The available stations are represented by yellow and red dots on the map.

Hover mouse over dot to see the name of the station.

Then click to see weather observations and forecasts.

To change the map : click on the green buttons with a black cross to zoom in, on the green button with a dash to zoom out, or on the green arrows for adjacent maps.


METAR-TAF: